Time;durP1;ratioP1;P1;durP2;ratioP2;P2;SDS_P1;SDS_P2;PMS_P1;PMS_P2;Temp;Humidity;BMP_temperature;BMP_pressure;BME280_temperature;BME280_humidity;BME280_pressure;Samples;Min_cycle;Max_cycle;Signal;HPM_P1;HPM_P2
2023/08/27 00:00:13;;;;;;;11.80;11.30;;;;;;;;;;5081658;28;20021;-65
2023/08/27 00:02:38;;;;;;;11.15;10.65;;;;;;;;;;5086076;28;20526;-63
2023/08/27 00:05:04;;;;;;;11.25;10.75;;;;;;;;;;5083639;28;20107;-65
2023/08/27 00:07:29;;;;;;;11.25;10.75;;;;;;;;;;5084935;28;20021;-65
2023/08/27 00:09:55;;;;;;;11.32;10.82;;;;;;;;;;5079508;28;20021;-65
2023/08/27 00:12:20;;;;;;;11.30;10.80;;;;;;;;;;5088429;28;20047;-64
2023/08/27 00:14:46;;;;;;;11.63;11.13;;;;;;;;;;5078962;28;20245;-64
2023/08/27 00:17:11;;;;;;;11.75;11.25;;;;;;;;;;5075608;28;20027;-64
2023/08/27 00:19:37;;;;;;;11.95;11.45;;;;;;;;;;5082933;28;20468;-63
2023/08/27 00:22:03;;;;;;;11.80;11.30;;;;;;;;;;5075136;28;20427;-64
2023/08/27 00:24:28;;;;;;;11.57;11.07;;;;;;;;;;5084212;28;20032;-65
2023/08/27 00:26:54;;;;;;;11.85;11.35;;;;;;;;;;5083864;28;20480;-65
2023/08/27 00:29:19;;;;;;;11.40;10.90;;;;;;;;;;5082809;28;20383;-63
2023/08/27 00:31:45;;;;;;;11.32;10.82;;;;;;;;;;5076235;28;20341;-65
2023/08/27 00:34:10;;;;;;;11.60;11.10;;;;;;;;;;5085220;28;20020;-65
2023/08/27 00:36:36;;;;;;;11.50;11.00;;;;;;;;;;5083294;28;20028;-63
2023/08/27 00:39:01;;;;;;;11.20;10.70;;;;;;;;;;5085342;28;20066;-63
2023/08/27 00:41:27;;;;;;;11.82;11.32;;;;;;;;;;5082361;28;20058;-64
2023/08/27 00:43:52;;;;;;;11.23;10.73;;;;;;;;;;5083132;28;20384;-64
2023/08/27 00:46:17;;;;;;;11.35;10.85;;;;;;;;;;5083097;28;20048;-64
2023/08/27 00:48:44;;;;;;;11.57;11.07;;;;;;;;;;5083721;28;20471;-65
2023/08/27 00:51:09;;;;;;;11.50;11.00;;;;;;;;;;5080987;28;20387;-65
2023/08/27 00:53:34;;;;;;;11.25;10.75;;;;;;;;;;5084331;28;20020;-63
2023/08/27 00:56:00;;;;;;;11.93;11.43;;;;;;;;;;5076773;28;20021;-63
2023/08/27 00:58:25;;;;;;;11.20;10.70;;;;;;;;;;5085472;28;20118;-63
2023/08/27 01:00:51;;;;;;;11.68;11.18;;;;;;;;;;5080300;28;20045;-64
2023/08/27 01:03:16;;;;;;;11.57;11.07;;;;;;;;;;5084027;28;20070;-65
2023/08/27 01:05:43;;;;;;;11.50;11.00;;;;;;;;;;5080518;28;20204;-63
2023/08/27 01:08:26;;;;;;;11.57;11.07;;;;;;;;;;5080958;28;20028;-63
2023/08/27 01:10:51;;;;;;;11.88;11.38;;;;;;;;;;5084309;28;20023;-63
2023/08/27 01:13:20;;;;;;;11.80;11.30;;;;;;;;;;5087370;28;20355;-64
2023/08/27 01:15:51;;;;;;;11.23;10.73;;;;;;;;;;5078211;28;20391;-64
2023/08/27 01:18:17;;;;;;;11.60;11.10;;;;;;;;;;5089071;28;20024;-63
2023/08/27 01:20:42;;;;;;;11.70;11.20;;;;;;;;;;5080708;28;20018;-64
2023/08/27 01:23:08;;;;;;;11.82;11.32;;;;;;;;;;5083038;28;20028;-63
2023/08/27 01:25:41;;;;;;;12.77;12.18;;;;;;;;;;5085156;28;20016;-64
2023/08/27 01:28:06;;;;;;;11.60;11.10;;;;;;;;;;5089694;28;20014;-64
2023/08/27 01:30:42;;;;;;;11.45;10.95;;;;;;;;;;5086114;28;20551;-63
2023/08/27 01:33:15;;;;;;;11.45;10.95;;;;;;;;;;5082477;28;20399;-64
2023/08/27 01:35:40;;;;;;;11.70;11.20;;;;;;;;;;5087189;28;20047;-65
2023/08/27 01:38:06;;;;;;;11.73;11.23;;;;;;;;;;5090281;28;20475;-63
2023/08/27 01:40:31;;;;;;;11.65;11.15;;;;;;;;;;5088749;28;20028;-64
2023/08/27 01:42:56;;;;;;;11.70;11.20;;;;;;;;;;5086076;28;20032;-63
2023/08/27 01:45:22;;;;;;;11.73;11.23;;;;;;;;;;5084512;28;20020;-64
2023/08/27 01:47:47;;;;;;;11.50;11.00;;;;;;;;;;5085371;28;20043;-63
2023/08/27 01:50:12;;;;;;;11.38;10.88;;;;;;;;;;5085872;28;20035;-65
2023/08/27 01:52:38;;;;;;;11.18;10.68;;;;;;;;;;5091867;28;20053;-62
2023/08/27 01:55:04;;;;;;;11.65;11.15;;;;;;;;;;5087134;28;20383;-64
2023/08/27 01:57:29;;;;;;;11.65;11.15;;;;;;;;;;5088198;28;20448;-62
2023/08/27 01:59:54;;;;;;;11.43;10.93;;;;;;;;;;5089012;28;20063;-63
2023/08/27 02:02:20;;;;;;;11.33;10.83;;;;;;;;;;5081441;28;20044;-64
2023/08/27 02:04:45;;;;;;;11.75;11.25;;;;;;;;;;5085430;28;20674;-63
2023/08/27 02:07:11;;;;;;;12.05;11.55;;;;;;;;;;5083901;28;20502;-63
2023/08/27 02:09:37;;;;;;;11.55;11.05;;;;;;;;;;5089495;28;20020;-63
2023/08/27 02:12:03;;;;;;;11.45;10.95;;;;;;;;;;5087717;28;20077;-64
2023/08/27 02:14:28;;;;;;;11.48;10.98;;;;;;;;;;5090386;28;20442;-64
2023/08/27 02:16:54;;;;;;;11.73;11.23;;;;;;;;;;5085880;28;20032;-65
2023/08/27 02:19:19;;;;;;;11.73;11.23;;;;;;;;;;5091013;28;20024;-64
2023/08/27 02:21:44;;;;;;;11.52;11.02;;;;;;;;;;5084476;28;20488;-63
2023/08/27 02:24:10;;;;;;;11.43;10.93;;;;;;;;;;5083618;28;20020;-63
2023/08/27 02:26:35;;;;;;;11.40;10.90;;;;;;;;;;5086379;28;20027;-63
2023/08/27 02:29:01;;;;;;;11.40;10.90;;;;;;;;;;5078886;28;20015;-63
2023/08/27 02:31:26;;;;;;;11.30;10.80;;;;;;;;;;5086223;28;20132;-63
2023/08/27 02:33:52;;;;;;;11.70;11.20;;;;;;;;;;5086881;28;20205;-65
2023/08/27 02:36:17;;;;;;;11.52;11.02;;;;;;;;;;5084466;28;20043;-65
2023/08/27 02:38:42;;;;;;;11.60;11.10;;;;;;;;;;5083165;28;20051;-63
2023/08/27 02:41:08;;;;;;;11.45;10.95;;;;;;;;;;5082822;28;20040;-64
2023/08/27 02:43:33;;;;;;;11.10;10.60;;;;;;;;;;5083845;28;20027;-63
2023/08/27 02:45:59;;;;;;;11.38;10.88;;;;;;;;;;5085770;28;20089;-65
2023/08/27 02:48:24;;;;;;;11.48;10.98;;;;;;;;;;5085938;28;20020;-63
2023/08/27 02:50:50;;;;;;;11.45;10.95;;;;;;;;;;5084390;28;20110;-64
2023/08/27 02:53:15;;;;;;;11.48;10.98;;;;;;;;;;5080677;28;20472;-64
2023/08/27 02:55:40;;;;;;;11.77;11.27;;;;;;;;;;5085509;28;20027;-64
2023/08/27 02:58:06;;;;;;;11.55;11.05;;;;;;;;;;5085210;28;20027;-65
2023/08/27 03:00:31;;;;;;;11.80;11.30;;;;;;;;;;5085675;28;20028;-64
2023/08/27 03:02:56;;;;;;;11.70;11.20;;;;;;;;;;5087158;28;20108;-63
2023/08/27 03:05:22;;;;;;;12.18;11.68;;;;;;;;;;5082645;28;20016;-63
2023/08/27 03:07:47;;;;;;;11.30;10.80;;;;;;;;;;5079384;28;20387;-65
2023/08/27 03:10:13;;;;;;;11.45;10.95;;;;;;;;;;5082416;28;20024;-64
2023/08/27 03:12:38;;;;;;;11.45;10.95;;;;;;;;;;5084806;28;20545;-64
2023/08/27 03:15:04;;;;;;;11.30;10.80;;;;;;;;;;5080742;28;20460;-64
2023/08/27 03:17:29;;;;;;;11.35;10.85;;;;;;;;;;5088103;28;20296;-64
2023/08/27 03:19:54;;;;;;;11.57;11.07;;;;;;;;;;5081445;28;20021;-64
2023/08/27 03:22:20;;;;;;;11.50;11.00;;;;;;;;;;5083720;28;20126;-65
2023/08/27 03:24:46;;;;;;;11.68;11.18;;;;;;;;;;5079648;28;20472;-64
2023/08/27 03:27:12;;;;;;;11.48;10.98;;;;;;;;;;5086006;28;20081;-64
2023/08/27 03:29:37;;;;;;;12.02;11.52;;;;;;;;;;5084372;28;20024;-64
2023/08/27 03:32:02;;;;;;;11.30;10.80;;;;;;;;;;5084466;28;20059;-65
2023/08/27 03:34:27;;;;;;;11.52;11.02;;;;;;;;;;5084935;28;20497;-64
2023/08/27 03:36:53;;;;;;;11.50;11.00;;;;;;;;;;5085201;28;20043;-63
2023/08/27 03:39:18;;;;;;;11.48;10.98;;;;;;;;;;5082153;28;20032;-63
2023/08/27 03:41:44;;;;;;;11.47;10.97;;;;;;;;;;5081412;28;20043;-63
2023/08/27 03:44:10;;;;;;;11.20;10.70;;;;;;;;;;5083289;28;20315;-63
2023/08/27 03:46:35;;;;;;;11.27;10.77;;;;;;;;;;5085515;28;20105;-64
2023/08/27 03:49:01;;;;;;;11.70;11.20;;;;;;;;;;5081146;28;20383;-63
2023/08/27 03:51:28;;;;;;;11.38;10.88;;;;;;;;;;5081536;28;20476;-64
2023/08/27 03:53:55;;;;;;;11.48;10.98;;;;;;;;;;5080988;28;20042;-64
2023/08/27 03:56:20;;;;;;;11.30;10.80;;;;;;;;;;5080198;28;20024;-65
2023/08/27 03:58:45;;;;;;;11.68;11.18;;;;;;;;;;5077574;28;20024;-64
2023/08/27 04:01:11;;;;;;;11.77;11.27;;;;;;;;;;5086080;28;20438;-64
2023/08/27 04:03:36;;;;;;;11.60;11.10;;;;;;;;;;5083731;28;20048;-64
2023/08/27 04:06:05;;;;;;;11.52;11.02;;;;;;;;;;5078613;28;20048;-64
2023/08/27 04:08:30;;;;;;;11.95;11.45;;;;;;;;;;5088068;28;20016;-64
2023/08/27 04:10:55;;;;;;;10.82;10.32;;;;;;;;;;5086595;28;20027;-64
2023/08/27 04:13:21;;;;;;;11.50;11.00;;;;;;;;;;5081871;28;20027;-64
2023/08/27 04:15:47;;;;;;;11.80;11.30;;;;;;;;;;5084550;28;20056;-64
2023/08/27 04:18:12;;;;;;;12.00;11.50;;;;;;;;;;5082498;28;20048;-64
2023/08/27 04:20:38;;;;;;;11.70;11.20;;;;;;;;;;5082495;28;20048;-65
2023/08/27 04:23:03;;;;;;;11.63;11.13;;;;;;;;;;5084382;28;20272;-60
2023/08/27 04:25:29;;;;;;;11.65;11.15;;;;;;;;;;5085181;28;20028;-59
2023/08/27 04:27:56;;;;;;;11.80;11.30;;;;;;;;;;5082927;28;20422;-60
2023/08/27 04:30:21;;;;;;;11.75;11.25;;;;;;;;;;5085684;28;20039;-60
2023/08/27 04:32:46;;;;;;;11.77;11.27;;;;;;;;;;5084535;28;20016;-61
2023/08/27 04:35:12;;;;;;;11.88;11.38;;;;;;;;;;5077754;28;20031;-61
2023/08/27 04:37:37;;;;;;;11.90;11.40;;;;;;;;;;5081814;28;20024;-62
2023/08/27 04:40:03;;;;;;;12.07;11.57;;;;;;;;;;5081344;28;20031;-61
2023/08/27 04:42:28;;;;;;;12.10;11.60;;;;;;;;;;5084679;28;20482;-61
2023/08/27 04:44:54;;;;;;;12.07;11.57;;;;;;;;;;5083293;28;20026;-61
2023/08/27 04:47:19;;;;;;;12.07;11.57;;;;;;;;;;5086423;28;20027;-60
2023/08/27 04:49:44;;;;;;;12.20;11.70;;;;;;;;;;5080096;28;20028;-62
2023/08/27 04:52:09;;;;;;;12.23;11.73;;;;;;;;;;5085102;28;20034;-61
2023/08/27 04:54:35;;;;;;;12.13;11.63;;;;;;;;;;5078420;28;20507;-61
2023/08/27 04:57:01;;;;;;;12.30;11.80;;;;;;;;;;5079502;28;20035;-61
2023/08/27 04:59:26;;;;;;;11.88;11.38;;;;;;;;;;5087942;28;20024;-61
2023/08/27 05:01:52;;;;;;;12.10;11.60;;;;;;;;;;5084721;28;20070;-61
2023/08/27 05:04:17;;;;;;;11.93;11.43;;;;;;;;;;5083620;28;20338;-61
2023/08/27 05:06:42;;;;;;;12.07;11.57;;;;;;;;;;5084376;28;20483;-63
2023/08/27 05:09:07;;;;;;;12.27;11.77;;;;;;;;;;5083112;28;20103;-61
2023/08/27 05:11:33;;;;;;;12.30;11.80;;;;;;;;;;5086018;28;20328;-62
2023/08/27 05:13:58;;;;;;;12.17;11.67;;;;;;;;;;5081963;28;20127;-61
2023/08/27 05:16:23;;;;;;;11.73;11.23;;;;;;;;;;5079488;28;20384;-62
2023/08/27 05:18:49;;;;;;;12.20;11.70;;;;;;;;;;5080707;28;20277;-62
2023/08/27 05:21:14;;;;;;;12.20;11.70;;;;;;;;;;5085486;28;20260;-61
2023/08/27 05:23:39;;;;;;;12.02;11.52;;;;;;;;;;5085725;28;20081;-62
2023/08/27 05:26:05;;;;;;;12.07;11.57;;;;;;;;;;5082351;28;20111;-60
2023/08/27 05:28:30;;;;;;;12.25;11.75;;;;;;;;;;5084686;28;20028;-59
2023/08/27 05:30:55;;;;;;;12.10;11.60;;;;;;;;;;5088611;28;20055;-61
2023/08/27 05:33:21;;;;;;;12.15;11.65;;;;;;;;;;5085564;28;20023;-61
2023/08/27 05:35:46;;;;;;;12.25;11.75;;;;;;;;;;5089459;28;20101;-61
2023/08/27 05:38:12;;;;;;;12.20;11.70;;;;;;;;;;5087134;28;20383;-61
2023/08/27 05:40:37;;;;;;;12.27;11.77;;;;;;;;;;5088395;28;20040;-61
2023/08/27 05:43:02;;;;;;;12.57;11.97;;;;;;;;;;5079776;28;20162;-61
2023/08/27 05:45:28;;;;;;;12.50;11.95;;;;;;;;;;5082116;28;20066;-62
2023/08/27 05:47:53;;;;;;;12.17;11.67;;;;;;;;;;5080985;28;20490;-61
2023/08/27 05:50:18;;;;;;;12.03;11.53;;;;;;;;;;5088553;28;20833;-61
2023/08/27 05:52:43;;;;;;;12.10;11.60;;;;;;;;;;5082273;28;20021;-61
2023/08/27 05:55:09;;;;;;;12.50;11.93;;;;;;;;;;5081549;28;20276;-62
2023/08/27 05:57:34;;;;;;;12.13;11.63;;;;;;;;;;5083409;28;20279;-62
2023/08/27 05:59:59;;;;;;;12.57;11.97;;;;;;;;;;5085577;28;20451;-61
2023/08/27 06:02:25;;;;;;;12.33;11.83;;;;;;;;;;5080313;28;20234;-61
2023/08/27 06:04:50;;;;;;;12.18;11.68;;;;;;;;;;5085321;28;20028;-61
2023/08/27 06:07:15;;;;;;;12.00;11.50;;;;;;;;;;5079863;28;20548;-61
2023/08/27 06:09:41;;;;;;;12.23;11.73;;;;;;;;;;5079226;28;20265;-61
2023/08/27 06:12:06;;;;;;;12.80;12.20;;;;;;;;;;5081206;28;20019;-60
2023/08/27 06:14:32;;;;;;;12.27;11.77;;;;;;;;;;5087525;28;20047;-62
2023/08/27 06:16:57;;;;;;;12.07;11.57;;;;;;;;;;5081025;28;20035;-59
2023/08/27 06:19:22;;;;;;;12.17;11.67;;;;;;;;;;5081913;28;20451;-61
2023/08/27 06:21:47;;;;;;;12.03;11.53;;;;;;;;;;5084096;28;20031;-60
2023/08/27 06:24:13;;;;;;;12.10;11.60;;;;;;;;;;5083410;28;20082;-61
2023/08/27 06:26:38;;;;;;;11.87;11.37;;;;;;;;;;5086059;28;20107;-62
2023/08/27 06:29:05;;;;;;;12.27;11.77;;;;;;;;;;5086733;28;20029;-62
2023/08/27 06:31:31;;;;;;;12.00;11.50;;;;;;;;;;5085603;28;20050;-61
2023/08/27 06:33:56;;;;;;;11.90;11.40;;;;;;;;;;5083932;28;20028;-62
2023/08/27 06:36:21;;;;;;;12.30;11.80;;;;;;;;;;5082136;28;20368;-60
2023/08/27 06:38:47;;;;;;;12.17;11.67;;;;;;;;;;5086866;28;20766;-62
2023/08/27 06:41:12;;;;;;;12.30;11.80;;;;;;;;;;5086227;28;20063;-61
2023/08/27 06:43:37;;;;;;;12.47;11.90;;;;;;;;;;5080560;28;20035;-61
2023/08/27 06:46:03;;;;;;;12.37;11.87;;;;;;;;;;5081481;28;20433;-61
2023/08/27 06:48:28;;;;;;;12.45;11.88;;;;;;;;;;5084191;28;20036;-60
2023/08/27 06:50:54;;;;;;;12.10;11.60;;;;;;;;;;5077717;28;20009;-61
2023/08/27 06:53:20;;;;;;;12.60;12.00;;;;;;;;;;5078641;28;20070;-61
2023/08/27 06:55:46;;;;;;;12.05;11.55;;;;;;;;;;5082281;28;20059;-61
2023/08/27 06:58:11;;;;;;;12.30;11.80;;;;;;;;;;5085707;28;20032;-62
2023/08/27 07:00:39;;;;;;;12.63;12.03;;;;;;;;;;5085538;28;20027;-61
2023/08/27 07:03:05;;;;;;;12.68;12.07;;;;;;;;;;5084791;28;20073;-62
2023/08/27 07:05:30;;;;;;;12.63;12.03;;;;;;;;;;5085250;28;20087;-62
2023/08/27 07:07:56;;;;;;;12.60;12.00;;;;;;;;;;5085390;28;20032;-60
2023/08/27 07:10:22;;;;;;;12.70;12.10;;;;;;;;;;5082619;28;20271;-61
2023/08/27 07:12:47;;;;;;;12.52;11.95;;;;;;;;;;5084859;28;20020;-61
2023/08/27 07:15:13;;;;;;;12.97;12.37;;;;;;;;;;5086664;28;20016;-62
2023/08/27 07:17:39;;;;;;;12.88;12.27;;;;;;;;;;5085807;28;20018;-62
2023/08/27 07:20:07;;;;;;;12.93;12.32;;;;;;;;;;5083924;28;20023;-62
2023/08/27 07:22:32;;;;;;;12.43;11.90;;;;;;;;;;5086842;28;20068;-62
2023/08/27 07:24:58;;;;;;;12.50;11.90;;;;;;;;;;5083199;28;20020;-61
2023/08/27 07:27:23;;;;;;;12.90;12.30;;;;;;;;;;5082114;28;20733;-62
2023/08/27 07:29:49;;;;;;;12.98;12.38;;;;;;;;;;5084048;28;20028;-62
2023/08/27 07:32:14;;;;;;;12.33;11.83;;;;;;;;;;5086864;28;20018;-60
2023/08/27 07:34:40;;;;;;;12.17;11.67;;;;;;;;;;5083178;28;20035;-62
2023/08/27 07:37:05;;;;;;;12.47;11.90;;;;;;;;;;5086278;28;20066;-62
2023/08/27 07:39:30;;;;;;;12.50;11.93;;;;;;;;;;5084956;28;20268;-62
2023/08/27 07:41:56;;;;;;;12.97;12.37;;;;;;;;;;5080383;28;20119;-60
2023/08/27 07:44:21;;;;;;;12.83;12.23;;;;;;;;;;5085129;28;20483;-62
2023/08/27 07:46:46;;;;;;;12.30;11.80;;;;;;;;;;5081305;28;20028;-62
2023/08/27 07:49:11;;;;;;;13.03;12.43;;;;;;;;;;5080923;28;20015;-62
2023/08/27 07:51:37;;;;;;;12.60;12.00;;;;;;;;;;5086205;28;20034;-62
2023/08/27 07:54:02;;;;;;;12.17;11.67;;;;;;;;;;5085362;28;20112;-62
2023/08/27 07:56:27;;;;;;;12.63;12.02;;;;;;;;;;5080076;28;20044;-62
2023/08/27 07:58:53;;;;;;;12.60;12.00;;;;;;;;;;5084962;28;20178;-62
2023/08/27 08:01:18;;;;;;;12.40;11.80;;;;;;;;;;5082823;28;20295;-61
2023/08/27 08:03:44;;;;;;;12.37;11.87;;;;;;;;;;5084439;28;20099;-62
2023/08/27 08:06:09;;;;;;;12.23;11.73;;;;;;;;;;5078488;28;20370;-62
2023/08/27 08:08:34;;;;;;;12.13;11.63;;;;;;;;;;5079604;28;20024;-61
2023/08/27 08:11:00;;;;;;;12.23;11.73;;;;;;;;;;5085251;28;20748;-61
2023/08/27 08:13:25;;;;;;;11.73;11.23;;;;;;;;;;5083709;28;20639;-61
2023/08/27 08:15:50;;;;;;;12.25;11.75;;;;;;;;;;5079456;28;20048;-60
2023/08/27 08:18:16;;;;;;;12.13;11.63;;;;;;;;;;5080090;28;20059;-60
2023/08/27 08:20:42;;;;;;;12.02;11.52;;;;;;;;;;5072882;28;20666;-60
2023/08/27 08:23:07;;;;;;;11.97;11.47;;;;;;;;;;5079389;28;20012;-59
2023/08/27 08:25:33;;;;;;;11.47;10.97;;;;;;;;;;5080371;28;20028;-62
2023/08/27 08:27:59;;;;;;;12.18;11.68;;;;;;;;;;5073652;28;20265;-61
2023/08/27 08:30:24;;;;;;;12.02;11.52;;;;;;;;;;5075046;28;20032;-62
2023/08/27 08:32:51;;;;;;;12.00;11.50;;;;;;;;;;5081737;28;20024;-60
2023/08/27 08:35:16;;;;;;;12.20;11.70;;;;;;;;;;5079502;28;20479;-62
2023/08/27 08:37:42;;;;;;;11.90;11.40;;;;;;;;;;5078627;28;20028;-61
2023/08/27 08:40:07;;;;;;;11.90;11.40;;;;;;;;;;5083098;28;20084;-60
2023/08/27 08:42:40;;;;;;;12.50;11.90;;;;;;;;;;5077301;28;20039;-60
2023/08/27 08:45:13;;;;;;;12.13;11.63;;;;;;;;;;5082983;28;20103;-61
2023/08/27 08:47:39;;;;;;;12.10;11.60;;;;;;;;;;5077395;28;20066;-61
2023/08/27 08:50:10;;;;;;;12.10;11.60;;;;;;;;;;5081530;28;20024;-60
2023/08/27 08:52:38;;;;;;;12.13;11.63;;;;;;;;;;5084897;28;20066;-61
2023/08/27 08:55:05;;;;;;;12.10;11.60;;;;;;;;;;5080382;28;20024;-62
2023/08/27 08:57:32;;;;;;;12.13;11.63;;;;;;;;;;5085289;28;20022;-59
2023/08/27 08:59:58;;;;;;;12.23;11.73;;;;;;;;;;5081212;28;20165;-62
2023/08/27 09:02:23;;;;;;;12.38;11.88;;;;;;;;;;5082444;28;20563;-64
2023/08/27 09:04:49;;;;;;;12.27;11.77;;;;;;;;;;5076837;28;20032;-63
2023/08/27 09:07:14;;;;;;;12.20;11.70;;;;;;;;;;5077887;28;20020;-65
2023/08/27 09:09:40;;;;;;;12.18;11.68;;;;;;;;;;5076639;28;21937;-64
2023/08/27 09:12:08;;;;;;;12.05;11.55;;;;;;;;;;5076638;28;20028;-63
2023/08/27 09:14:34;;;;;;;12.05;11.55;;;;;;;;;;5082469;28;20430;-64
2023/08/27 09:17:00;;;;;;;11.93;11.43;;;;;;;;;;5074161;28;20943;-63
2023/08/27 09:19:25;;;;;;;12.00;11.50;;;;;;;;;;5077856;28;20039;-63
2023/08/27 09:21:51;;;;;;;12.30;11.80;;;;;;;;;;5076163;28;20445;-64
2023/08/27 09:24:16;;;;;;;12.60;12.00;;;;;;;;;;5078791;28;20437;-63
2023/08/27 09:26:41;;;;;;;11.90;11.40;;;;;;;;;;5078934;28;20024;-62
2023/08/27 09:29:10;;;;;;;12.30;11.80;;;;;;;;;;5077240;28;20290;-63
2023/08/27 09:31:36;;;;;;;12.18;11.68;;;;;;;;;;5075031;28;20012;-63
2023/08/27 09:34:01;;;;;;;12.20;11.70;;;;;;;;;;5080120;28;20090;-65
2023/08/27 09:36:27;;;;;;;12.23;11.73;;;;;;;;;;5078176;28;20071;-63
2023/08/27 09:38:53;;;;;;;12.20;11.70;;;;;;;;;;5075256;28;20582;-63
2023/08/27 09:41:18;;;;;;;11.98;11.48;;;;;;;;;;5081854;28;20399;-65
2023/08/27 09:43:50;;;;;;;12.05;11.55;;;;;;;;;;5081225;28;20571;-64
2023/08/27 09:46:16;;;;;;;12.30;11.80;;;;;;;;;;5083618;28;20031;-65
2023/08/27 09:48:41;;;;;;;11.90;11.40;;;;;;;;;;5082620;28;20024;-64
2023/08/27 09:51:06;;;;;;;12.13;11.63;;;;;;;;;;5081187;28;20403;-62
2023/08/27 09:53:32;;;;;;;12.02;11.52;;;;;;;;;;5083410;28;20688;-65
2023/08/27 09:55:57;;;;;;;12.03;11.53;;;;;;;;;;5080561;28;20058;-65
2023/08/27 09:58:26;;;;;;;11.88;11.38;;;;;;;;;;5082369;28;20276;-64
2023/08/27 10:00:57;;;;;;;11.93;11.43;;;;;;;;;;5078675;28;20514;-65
2023/08/27 10:03:22;;;;;;;12.00;11.50;;;;;;;;;;5076854;28;20649;-65
2023/08/27 10:05:49;;;;;;;12.15;11.65;;;;;;;;;;5075424;28;20531;-63
2023/08/27 10:08:14;;;;;;;12.23;11.73;;;;;;;;;;5077919;28;20115;-64
2023/08/27 10:10:40;;;;;;;11.60;11.10;;;;;;;;;;5077042;28;20099;-63
2023/08/27 10:13:05;;;;;;;12.10;11.60;;;;;;;;;;5077661;28;20284;-63
2023/08/27 10:15:33;;;;;;;12.10;11.60;;;;;;;;;;5076632;28;20012;-62
2023/08/27 10:17:59;;;;;;;12.13;11.63;;;;;;;;;;5074110;28;20076;-62
2023/08/27 10:20:24;;;;;;;12.05;11.55;;;;;;;;;;5076578;28;20029;-62
2023/08/27 10:22:50;;;;;;;11.90;11.40;;;;;;;;;;5077597;28;20028;-62
2023/08/27 10:25:17;;;;;;;12.02;11.52;;;;;;;;;;5072607;28;20127;-64
2023/08/27 10:27:44;;;;;;;11.95;11.45;;;;;;;;;;5070510;28;20040;-64
2023/08/27 10:30:10;;;;;;;11.75;11.25;;;;;;;;;;5073469;28;20034;-63
2023/08/27 10:32:35;;;;;;;11.90;11.40;;;;;;;;;;5076454;28;20039;-62
2023/08/27 10:35:05;;;;;;;11.90;11.40;;;;;;;;;;5076541;28;20387;-62
2023/08/27 10:37:31;;;;;;;12.02;11.52;;;;;;;;;;5077039;28;20331;-62
2023/08/27 10:39:58;;;;;;;11.65;11.15;;;;;;;;;;5079521;28;20043;-62
2023/08/27 10:42:31;;;;;;;11.90;11.40;;;;;;;;;;5082858;28;20027;-63
2023/08/27 10:45:09;;;;;;;11.35;10.85;;;;;;;;;;5080818;28;20425;-63
2023/08/27 10:47:35;;;;;;;12.10;11.60;;;;;;;;;;5074754;28;20552;-62
2023/08/27 10:50:00;;;;;;;11.77;11.27;;;;;;;;;;5075058;28;20025;-62
2023/08/27 10:52:25;;;;;;;11.50;11.00;;;;;;;;;;5072108;28;20523;-63
2023/08/27 10:55:00;;;;;;;11.70;11.20;;;;;;;;;;5083100;28;20272;-62
2023/08/27 10:57:25;;;;;;;11.35;10.85;;;;;;;;;;5082558;28;20024;-63
2023/08/27 10:59:54;;;;;;;11.43;10.93;;;;;;;;;;5073380;28;20031;-61
2023/08/27 11:02:19;;;;;;;11.70;11.20;;;;;;;;;;5078298;28;20369;-61
2023/08/27 11:04:50;;;;;;;11.73;11.23;;;;;;;;;;5072960;28;20051;-62
2023/08/27 11:07:17;;;;;;;11.82;11.32;;;;;;;;;;5076670;28;20074;-62
2023/08/27 11:09:48;;;;;;;11.88;11.38;;;;;;;;;;5077808;28;20028;-62
2023/08/27 11:12:20;;;;;;;11.98;11.48;;;;;;;;;;5074601;28;20472;-62
2023/08/27 11:14:46;;;;;;;11.90;11.40;;;;;;;;;;5076103;28;20069;-62
2023/08/27 11:17:21;;;;;;;11.73;11.23;;;;;;;;;;5080830;28;20024;-62
2023/08/27 11:19:46;;;;;;;12.10;11.60;;;;;;;;;;5081321;28;20028;-62
2023/08/27 11:22:13;;;;;;;11.70;11.20;;;;;;;;;;5084130;28;20032;-62
2023/08/27 11:24:43;;;;;;;11.93;11.43;;;;;;;;;;5078899;28;20276;-62
2023/08/27 11:27:08;;;;;;;11.90;11.40;;;;;;;;;;5077883;28;20051;-63
2023/08/27 11:29:38;;;;;;;11.80;11.30;;;;;;;;;;5074243;28;20062;-62
2023/08/27 11:32:04;;;;;;;11.60;11.10;;;;;;;;;;5078566;28;20024;-62
2023/08/27 11:34:36;;;;;;;11.60;11.10;;;;;;;;;;5078057;28;20035;-62
2023/08/27 11:37:04;;;;;;;11.98;11.48;;;;;;;;;;5077503;28;20027;-60
2023/08/27 11:39:30;;;;;;;11.68;11.18;;;;;;;;;;5078605;28;20051;-60
2023/08/27 11:41:55;;;;;;;11.50;11.00;;;;;;;;;;5080210;28;20061;-62
2023/08/27 11:44:20;;;;;;;11.50;11.00;;;;;;;;;;5075097;28;20039;-61
2023/08/27 11:46:46;;;;;;;11.57;11.07;;;;;;;;;;5083143;28;20084;-61
2023/08/27 11:49:13;;;;;;;11.80;11.30;;;;;;;;;;5080941;28;20490;-62
2023/08/27 11:51:42;;;;;;;11.90;11.40;;;;;;;;;;5080422;28;20031;-63
2023/08/27 11:54:08;;;;;;;11.60;11.10;;;;;;;;;;5083229;28;20027;-67
2023/08/27 11:56:37;;;;;;;11.68;11.18;;;;;;;;;;5075125;28;20129;-64
2023/08/27 11:59:06;;;;;;;11.48;10.98;;;;;;;;;;5076808;28;20077;-64
2023/08/27 12:01:32;;;;;;;11.60;11.10;;;;;;;;;;5082025;28;20020;-60
2023/08/27 12:03:58;;;;;;;11.85;11.35;;;;;;;;;;5076074;28;20024;-62
2023/08/27 12:06:28;;;;;;;11.68;11.18;;;;;;;;;;5076113;28;20024;-62
2023/08/27 12:08:54;;;;;;;11.68;11.18;;;;;;;;;;5076529;28;20032;-61
2023/08/27 12:11:22;;;;;;;11.80;11.30;;;;;;;;;;5077612;28;20008;-60
2023/08/27 12:13:47;;;;;;;11.73;11.23;;;;;;;;;;5076195;28;20089;-61
2023/08/27 12:16:15;;;;;;;11.93;11.43;;;;;;;;;;5079664;28;20584;-61
2023/08/27 12:18:44;;;;;;;11.80;11.30;;;;;;;;;;5077795;28;20261;-61
2023/08/27 12:21:09;;;;;;;11.88;11.38;;;;;;;;;;5077891;28;20032;-60
2023/08/27 12:23:35;;;;;;;11.80;11.30;;;;;;;;;;5079359;28;20042;-61
2023/08/27 12:26:02;;;;;;;12.05;11.55;;;;;;;;;;5076014;28;20261;-61
2023/08/27 12:28:27;;;;;;;11.50;11.00;;;;;;;;;;5075059;28;20028;-62
2023/08/27 12:30:53;;;;;;;11.20;10.70;;;;;;;;;;5078475;28;20031;-60
2023/08/27 12:33:18;;;;;;;11.77;11.27;;;;;;;;;;5072753;28;20300;-61
2023/08/27 12:35:47;;;;;;;11.73;11.23;;;;;;;;;;5074627;28;20028;-60
2023/08/27 12:38:12;;;;;;;11.70;11.20;;;;;;;;;;5078022;28;20091;-60
2023/08/27 12:40:38;;;;;;;11.18;10.68;;;;;;;;;;5078618;28;20499;-60
2023/08/27 12:43:03;;;;;;;11.77;11.27;;;;;;;;;;5078092;28;20139;-60
2023/08/27 12:45:29;;;;;;;11.30;10.80;;;;;;;;;;5076450;28;20067;-61
2023/08/27 12:47:54;;;;;;;11.40;10.90;;;;;;;;;;5080831;28;20032;-60
2023/08/27 12:50:20;;;;;;;11.30;10.80;;;;;;;;;;5077893;28;20024;-60
2023/08/27 12:52:45;;;;;;;11.63;11.13;;;;;;;;;;5078300;28;20054;-60
2023/08/27 12:55:10;;;;;;;11.50;11.00;;;;;;;;;;5080553;28;20265;-60
2023/08/27 12:57:39;;;;;;;11.57;11.07;;;;;;;;;;5078457;28;20027;-60
2023/08/27 13:00:05;;;;;;;11.40;10.90;;;;;;;;;;5076780;28;20276;-59
2023/08/27 13:02:31;;;;;;;11.30;10.80;;;;;;;;;;5083424;28;20044;-60
2023/08/27 13:04:56;;;;;;;10.87;10.37;;;;;;;;;;5085022;28;20065;-62
2023/08/27 13:07:21;;;;;;;11.57;11.07;;;;;;;;;;5079529;28;20261;-60
2023/08/27 13:09:46;;;;;;;11.77;11.27;;;;;;;;;;5081200;28;20028;-60
2023/08/27 13:12:14;;;;;;;11.43;10.93;;;;;;;;;;5081422;28;20024;-60
2023/08/27 13:14:39;;;;;;;11.45;10.95;;;;;;;;;;5079127;28;20295;-59
2023/08/27 13:17:05;;;;;;;11.50;11.00;;;;;;;;;;5078820;28;20494;-61
2023/08/27 13:19:30;;;;;;;11.23;10.73;;;;;;;;;;5086534;28;20268;-61
2023/08/27 13:21:55;;;;;;;11.60;11.10;;;;;;;;;;5074130;28;20406;-60
2023/08/27 13:24:20;;;;;;;11.80;11.30;;;;;;;;;;5080361;28;20093;-59
2023/08/27 13:26:49;;;;;;;11.60;11.10;;;;;;;;;;5081697;28;20066;-60
2023/08/27 13:29:14;;;;;;;11.45;10.95;;;;;;;;;;5086937;28;21014;-60
2023/08/27 13:31:39;;;;;;;11.50;11.00;;;;;;;;;;5083534;28;20016;-62
2023/08/27 13:34:05;;;;;;;11.30;10.80;;;;;;;;;;5085407;28;20328;-60
2023/08/27 13:36:31;;;;;;;11.27;10.77;;;;;;;;;;5084685;28;20016;-59
2023/08/27 13:38:57;;;;;;;11.68;11.18;;;;;;;;;;5082337;28;20026;-60
2023/08/27 13:41:22;;;;;;;11.57;11.07;;;;;;;;;;5083757;28;20023;-62
2023/08/27 13:43:47;;;;;;;11.38;10.88;;;;;;;;;;5085165;28;20031;-60
2023/08/27 13:46:13;;;;;;;11.50;11.00;;;;;;;;;;5083458;28;20020;-61
2023/08/27 13:48:39;;;;;;;11.35;10.85;;;;;;;;;;5081959;28;20312;-61
2023/08/27 13:51:05;;;;;;;11.70;11.20;;;;;;;;;;5079214;28;20022;-59
2023/08/27 13:53:30;;;;;;;11.60;11.10;;;;;;;;;;5089497;28;20391;-63
2023/08/27 13:55:55;;;;;;;11.43;10.93;;;;;;;;;;5080766;28;20024;-61
2023/08/27 13:58:21;;;;;;;11.80;11.30;;;;;;;;;;5079005;28;20115;-61
2023/08/27 14:00:46;;;;;;;11.30;10.80;;;;;;;;;;5082643;28;20024;-61
2023/08/27 14:03:12;;;;;;;11.70;11.20;;;;;;;;;;5081458;28;20126;-60
2023/08/27 14:05:37;;;;;;;11.53;11.03;;;;;;;;;;5076192;28;20804;-60
2023/08/27 14:08:03;;;;;;;11.50;11.00;;;;;;;;;;5085293;28;20265;-61